Time;durP1;ratioP1;P1;durP2;ratioP2;P2;SDS_P1;SDS_P2;PMS_P1;PMS_P2;Temp;Humidity;BMP_temperature;BMP_pressure;BME280_temperature;BME280_humidity;BME280_pressure;Samples;Min_cycle;Max_cycle;Signal;HPM_P1;HPM_P2
2024/01/17 00:00:24;;;;;;;1.90;1.80;;;;;-6.10;94570.00;;;;5075448;28;20199;-59
2024/01/17 00:02:53;;;;;;;2.10;2.00;;;;;-6.10;94564.00;;;;5075539;28;20211;-59
2024/01/17 00:05:20;;;;;;;2.77;2.40;;;;;-6.00;94546.00;;;;5075339;28;20216;-60
2024/01/17 00:07:48;;;;;;;2.53;2.23;;;;;-6.00;94546.00;;;;5076152;28;20556;-60
2024/01/17 00:10:16;;;;;;;1.37;1.33;;;;;-5.90;94529.00;;;;5076159;28;20188;-61
2024/01/17 00:12:42;;;;;;;2.30;2.20;;;;;-5.90;94537.00;;;;5075706;28;20215;-60
2024/01/17 00:15:10;;;;;;;4.40;2.63;;;;;-6.10;94535.00;;;;5076212;28;20196;-61
2024/01/17 00:17:37;;;;;;;2.43;2.23;;;;;-6.20;94533.00;;;;5076329;28;20211;-60
2024/01/17 00:20:08;;;;;;;1.80;1.70;;;;;-6.30;94537.00;;;;5076566;28;20575;-60
2024/01/17 00:22:35;;;;;;;2.30;1.90;;;;;-6.10;94524.00;;;;5076009;28;20215;-60
2024/01/17 00:25:03;;;;;;;2.50;2.30;;;;;-6.10;94534.00;;;;5075825;28;20215;-60
2024/01/17 00:27:31;;;;;;;1.80;1.70;;;;;-6.10;94519.00;;;;5074274;28;20252;-60
2024/01/17 00:29:58;;;;;;;2.83;2.17;;;;;-6.00;94517.00;;;;5075060;28;20198;-60
2024/01/17 00:32:25;;;;;;;2.07;1.90;;;;;-6.00;94518.00;;;;5074609;28;20208;-59
2024/01/17 00:34:53;;;;;;;2.47;2.27;;;;;-5.90;94511.00;;;;5075912;28;20196;-60
2024/01/17 00:37:22;;;;;;;2.57;2.37;;;;;-5.90;94496.00;;;;5075292;28;20768;-60
2024/01/17 00:39:50;;;;;;;2.07;1.97;;;;;-5.80;94495.00;;;;5075655;28;20192;-60
2024/01/17 00:42:17;;;;;;;1.70;1.60;;;;;-5.70;94494.00;;;;5075159;28;20316;-59
2024/01/17 00:44:45;;;;;;;3.03;2.80;;;;;-5.50;94494.00;;;;5075220;28;20557;-59
2024/01/17 00:47:14;;;;;;;2.47;2.37;;;;;-5.50;94493.00;;;;5074814;28;20248;-60
2024/01/17 00:49:41;;;;;;;2.13;1.93;;;;;-5.30;94497.00;;;;5075438;28;20198;-60
2024/01/17 00:52:09;;;;;;;3.53;3.20;;;;;-5.20;94494.00;;;;5074880;28;20224;-61
2024/01/17 00:54:38;;;;;;;3.27;3.03;;;;;-5.20;94487.00;;;;5075468;28;20654;-61
2024/01/17 00:57:05;;;;;;;2.10;2.00;;;;;-5.10;94486.00;;;;5075397;28;20197;-60
2024/01/17 00:59:33;;;;;;;2.47;2.07;;;;;-5.10;94490.00;;;;5075131;28;20195;-60
2024/01/17 01:02:01;;;;;;;2.47;2.23;;;;;-5.10;94486.00;;;;5074961;28;20219;-61
2024/01/17 01:04:29;;;;;;;3.17;2.37;;;;;-5.00;94485.00;;;;5075024;28;20282;-59
2024/01/17 01:06:56;;;;;;;3.80;2.77;;;;;-5.00;94475.00;;;;5074606;28;20197;-59
2024/01/17 01:09:24;;;;;;;1.60;1.50;;;;;-5.00;94475.00;;;;5074992;28;20205;-59
2024/01/17 01:11:52;;;;;;;3.27;2.97;;;;;-5.10;94480.00;;;;5074977;28;20235;-60
2024/01/17 01:14:20;;;;;;;2.80;2.43;;;;;-5.10;94474.00;;;;5075449;28;20212;-60
2024/01/17 01:16:48;;;;;;;1.77;1.67;;;;;-5.20;94472.00;;;;5075160;28;20194;-60
2024/01/17 01:19:15;;;;;;;4.37;2.10;;;;;-5.20;94464.00;;;;5074736;28;20216;-59
2024/01/17 01:21:43;;;;;;;1.90;1.80;;;;;-5.10;94469.00;;;;5074640;28;20556;-61
2024/01/17 01:24:10;;;;;;;1.67;1.57;;;;;-5.20;94461.00;;;;5074899;28;20187;-60
2024/01/17 01:26:38;;;;;;;3.83;2.63;;;;;-5.20;94469.00;;;;5074751;28;20228;-60
2024/01/17 01:29:07;;;;;;;3.63;2.83;;;;;-5.10;94464.00;;;;5074247;28;20544;-60
2024/01/17 01:31:35;;;;;;;1.17;1.17;;;;;-5.10;94462.00;;;;5074733;28;20277;-60
2024/01/17 01:34:02;;;;;;;3.23;1.77;;;;;-5.10;94464.00;;;;5075078;28;20195;-59
2024/01/17 01:36:30;;;;;;;3.70;1.57;;;;;-5.10;94458.00;;;;5074931;28;20193;-60
2024/01/17 01:38:57;;;;;;;2.60;2.40;;;;;-5.10;94444.00;;;;5074554;28;20216;-60
2024/01/17 01:41:25;;;;;;;2.03;1.87;;;;;-5.10;94444.00;;;;5073076;28;20201;-60
2024/01/17 01:43:52;;;;;;;1.80;1.70;;;;;-5.10;94439.00;;;;5074956;28;20544;-60
2024/01/17 01:46:24;;;;;;;1.40;1.30;;;;;-5.10;94442.00;;;;5074871;28;20683;-61
2024/01/17 01:48:54;;;;;;;1.90;1.80;;;;;-4.90;94438.00;;;;5073165;28;20241;-60
2024/01/17 01:51:22;;;;;;;2.63;2.43;;;;;-4.90;94427.00;;;;5074820;28;20196;-61
2024/01/17 01:53:53;;;;;;;2.13;2.03;;;;;-4.80;94427.00;;;;5074268;28;20187;-60
2024/01/17 01:56:25;;;;;;;2.90;2.70;;;;;-4.80;94411.00;;;;5074755;28;20181;-60
2024/01/17 01:58:55;;;;;;;2.20;2.07;;;;;-4.70;94418.00;;;;5074759;28;20271;-60
2024/01/17 02:01:25;;;;;;;2.70;2.40;;;;;-4.70;94407.00;;;;5074729;28;20200;-60
2024/01/17 02:03:54;;;;;;;8.73;2.13;;;;;-4.50;94411.00;;;;5073974;28;20220;-59
2024/01/17 02:06:23;;;;;;;2.07;1.97;;;;;-4.50;94401.00;;;;5074555;28;20218;-61
2024/01/17 02:08:51;;;;;;;1.27;1.20;;;;;-4.50;94389.00;;;;5074141;28;20197;-61
2024/01/17 02:11:19;;;;;;;4.87;2.40;;;;;-4.40;94398.00;;;;5074030;28;20198;-59
2024/01/17 02:13:47;;;;;;;3.10;2.33;;;;;-4.50;94399.00;;;;5074197;28;20216;-60
2024/01/17 02:16:16;;;;;;;4.20;2.97;;;;;-4.40;94383.00;;;;5074730;28;20209;-59
2024/01/17 02:18:45;;;;;;;1.70;1.60;;;;;-4.40;94371.00;;;;5073899;28;20223;-60
2024/01/17 02:21:13;;;;;;;2.30;2.20;;;;;-4.40;94355.00;;;;5074700;28;20570;-59
2024/01/17 02:23:40;;;;;;;1.77;1.67;;;;;-4.30;94364.00;;;;5073777;28;20209;-59
2024/01/17 02:26:09;;;;;;;2.13;2.03;;;;;-4.30;94367.00;;;;5073860;28;20197;-59
2024/01/17 02:28:37;;;;;;;5.20;2.33;;;;;-4.30;94364.00;;;;5073933;28;20194;-60
2024/01/17 02:31:06;;;;;;;3.20;2.97;;;;;-4.40;94363.00;;;;5074017;28;20655;-59
2024/01/17 02:33:34;;;;;;;2.10;1.83;;;;;-4.40;94368.00;;;;5073411;28;20582;-60
2024/01/17 02:36:01;;;;;;;2.13;1.87;;;;;-4.40;94361.00;;;;5073396;28;20193;-59
2024/01/17 02:38:29;;;;;;;1.60;1.50;;;;;-4.30;94362.00;;;;5072494;28;20223;-60
2024/01/17 02:40:56;;;;;;;2.07;1.97;;;;;-4.30;94362.00;;;;5074002;28;20210;-60
2024/01/17 02:43:27;;;;;;;5.80;1.63;;;;;-4.10;94351.00;;;;5074434;28;20224;-60
2024/01/17 02:45:54;;;;;;;3.60;2.53;;;;;-4.10;94355.00;;;;5077481;28;20633;-60
2024/01/17 02:48:22;;;;;;;3.80;3.37;;;;;-4.20;94349.00;;;;5077883;28;20215;-60
2024/01/17 02:50:50;;;;;;;2.50;2.20;;;;;-4.20;94348.00;;;;5077612;28;20220;-60
2024/01/17 02:53:17;;;;;;;2.53;2.33;;;;;-4.20;94337.00;;;;5076161;28;20220;-60
2024/01/17 02:55:44;;;;;;;3.73;2.90;;;;;-4.10;94331.00;;;;5077811;28;20192;-60
2024/01/17 02:58:12;;;;;;;4.03;2.77;;;;;-4.00;94336.00;;;;5077208;28;20244;-60
2024/01/17 03:00:42;;;;;;;3.10;2.60;;;;;-3.90;94335.00;;;;5077434;28;20526;-60
2024/01/17 03:03:10;;;;;;;2.97;2.77;;;;;-3.80;94331.00;;;;5077446;28;20297;-60
2024/01/17 03:05:38;;;;;;;3.03;2.43;;;;;-3.70;94319.00;;;;5077168;28;20219;-60
2024/01/17 03:08:06;;;;;;;1.80;1.67;;;;;-3.70;94324.00;;;;5077533;28;20314;-59
2024/01/17 03:10:33;;;;;;;1.90;1.80;;;;;-3.70;94318.00;;;;5075381;28;20205;-61
2024/01/17 03:13:04;;;;;;;2.20;2.00;;;;;-3.60;94310.00;;;;5076400;28;20268;-60
2024/01/17 03:15:31;;;;;;;2.77;1.83;;;;;-3.50;94323.00;;;;5076462;28;20193;-61
2024/01/17 03:18:00;;;;;;;3.70;2.20;;;;;-3.50;94319.00;;;;5076805;28;20221;-61
2024/01/17 03:20:27;;;;;;;11.20;2.20;;;;;-3.60;94310.00;;;;5077051;28;20198;-61
2024/01/17 03:22:55;;;;;;;3.63;2.57;;;;;-3.50;94317.00;;;;5076394;28;20226;-60
2024/01/17 03:25:22;;;;;;;1.90;1.80;;;;;-3.60;94313.00;;;;5076334;28;20194;-60
2024/01/17 03:27:49;;;;;;;4.97;2.67;;;;;-3.60;94313.00;;;;5075089;28;20209;-60
2024/01/17 03:30:17;;;;;;;1.33;1.33;;;;;-3.60;94301.00;;;;5076739;28;20245;-60
2024/01/17 03:32:44;;;;;;;1.80;1.70;;;;;-3.50;94298.00;;;;5076235;28;20217;-60
2024/01/17 03:35:13;;;;;;;3.67;2.40;;;;;-3.40;94283.00;;;;5076221;28;20198;-60
2024/01/17 03:37:42;;;;;;;5.97;2.27;;;;;-3.40;94285.00;;;;5076552;28;20213;-60
2024/01/17 03:40:11;;;;;;;1.83;1.73;;;;;-3.50;94282.00;;;;5075809;28;20211;-60
2024/01/17 03:42:38;;;;;;;2.07;1.97;;;;;-3.40;94280.00;;;;5075955;28;20667;-60
2024/01/17 03:45:07;;;;;;;2.10;1.90;;;;;-3.40;94280.00;;;;5076284;28;20306;-59
2024/01/17 03:47:35;;;;;;;3.90;2.83;;;;;-3.30;94268.00;;;;5075866;28;20654;-60
2024/01/17 03:50:03;;;;;;;1.97;1.87;;;;;-3.20;94259.00;;;;5075814;28;20193;-61
2024/01/17 03:52:31;;;;;;;2.73;2.53;;;;;-3.30;94260.00;;;;5075734;28;20267;-59
2024/01/17 03:54:59;;;;;;;1.87;1.77;;;;;-3.30;94249.00;;;;5075505;28;20245;-60
2024/01/17 03:57:29;;;;;;;1.93;1.83;;;;;-3.30;94238.00;;;;5076292;28;20229;-59
2024/01/17 03:59:57;;;;;;;2.20;2.00;;;;;-3.30;94235.00;;;;5075731;28;20222;-61
2024/01/17 04:02:24;;;;;;;22.67;2.93;;;;;-3.20;94219.00;;;;5075922;28;20219;-60
2024/01/17 04:04:51;;;;;;;5.10;2.00;;;;;-3.10;94223.00;;;;5075953;28;20199;-59
2024/01/17 04:07:22;;;;;;;1.87;1.77;;;;;-3.20;94219.00;;;;5075812;28;20650;-59
2024/01/17 04:09:50;;;;;;;1.30;1.23;;;;;-3.20;94213.00;;;;5075583;28;20201;-60
2024/01/17 04:12:21;;;;;;;2.07;1.87;;;;;-3.30;94209.00;;;;5075428;28;20690;-59
2024/01/17 04:14:48;;;;;;;4.00;2.30;;;;;-3.50;94210.00;;;;5075409;28;20641;-60
2024/01/17 04:17:16;;;;;;;1.73;1.63;;;;;-3.40;94196.00;;;;5075691;28;20650;-60
2024/01/17 04:19:45;;;;;;;2.50;2.07;;;;;-3.40;94204.00;;;;5075433;28;20313;-61
2024/01/17 04:22:12;;;;;;;4.93;2.50;;;;;-3.30;94188.00;;;;5075292;28;20248;-59
2024/01/17 04:24:40;;;;;;;2.17;2.07;;;;;-3.20;94188.00;;;;5075808;28;20195;-59
2024/01/17 04:27:09;;;;;;;3.33;2.63;;;;;-3.20;94184.00;;;;5075318;28;20651;-60
2024/01/17 04:29:36;;;;;;;2.03;1.93;;;;;-3.20;94176.00;;;;5074991;28;20202;-59
2024/01/17 04:32:04;;;;;;;1.77;1.67;;;;;-3.00;94164.00;;;;5075036;28;20228;-59
2024/01/17 04:34:31;;;;;;;2.37;2.17;;;;;-3.00;94154.00;;;;5075176;28;20201;-60
2024/01/17 04:36:59;;;;;;;1.87;1.77;;;;;-2.90;94158.00;;;;5074993;28;20637;-59
2024/01/17 04:39:26;;;;;;;1.93;1.83;;;;;-2.90;94138.00;;;;5073712;28;20255;-60
2024/01/17 04:41:53;;;;;;;1.60;1.50;;;;;-2.90;94138.00;;;;5074887;28;20230;-61
2024/01/17 04:44:22;;;;;;;5.57;2.00;;;;;-2.80;94134.00;;;;5075051;28;20191;-60
2024/01/17 04:46:49;;;;;;;2.07;1.53;;;;;-2.80;94125.00;;;;5075259;28;20191;-60
2024/01/17 04:49:17;;;;;;;3.10;2.77;;;;;-2.60;94113.00;;;;5075388;28;20194;-61
2024/01/17 04:51:46;;;;;;;3.93;2.23;;;;;-2.60;94106.00;;;;5075439;28;20215;-60
2024/01/17 04:54:14;;;;;;;1.20;1.20;;;;;-2.60;94108.00;;;;5075383;28;20203;-59
2024/01/17 04:56:44;;;;;;;5.23;2.57;;;;;-2.50;94118.00;;;;5075262;28;20209;-59
2024/01/17 04:59:11;;;;;;;2.93;2.23;;;;;-2.50;94115.00;;;;5075342;28;20207;-60
2024/01/17 05:01:40;;;;;;;2.27;1.93;;;;;-2.70;94112.00;;;;5075166;28;20210;-60
2024/01/17 05:04:08;;;;;;;2.07;1.97;;;;;-2.70;94099.00;;;;5075047;28;20194;-61
2024/01/17 05:06:35;;;;;;;2.73;2.53;;;;;-2.70;94100.00;;;;5074715;28;20219;-59
2024/01/17 05:09:07;;;;;;;2.57;1.93;;;;;-2.80;94093.00;;;;5074997;28;20192;-61
2024/01/17 05:11:34;;;;;;;2.37;2.17;;;;;-2.90;94093.00;;;;5074999;28;20230;-60
2024/01/17 05:14:02;;;;;;;2.03;1.93;;;;;-2.80;94083.00;;;;5074687;28;20187;-59
2024/01/17 05:16:29;;;;;;;1.60;1.50;;;;;-2.80;94079.00;;;;5075198;28;20199;-60
2024/01/17 05:18:58;;;;;;;7.07;3.83;;;;;-2.80;94076.00;;;;5074662;28;20223;-59
2024/01/17 05:21:25;;;;;;;3.30;1.93;;;;;-2.80;94067.00;;;;5074827;28;20253;-61
2024/01/17 05:23:53;;;;;;;3.47;3.13;;;;;-2.70;94059.00;;;;5074234;28;20206;-59
2024/01/17 05:26:20;;;;;;;3.33;2.93;;;;;-2.80;94049.00;;;;5074466;28;20246;-61
2024/01/17 05:28:48;;;;;;;1.83;1.73;;;;;-2.80;94053.00;;;;5074535;28;20580;-60
2024/01/17 05:31:15;;;;;;;4.83;2.50;;;;;-2.80;94038.00;;;;5074505;28;20198;-60
2024/01/17 05:33:45;;;;;;;2.23;1.87;;;;;-2.80;94033.00;;;;5074405;28;20218;-60
2024/01/17 05:36:14;;;;;;;3.17;2.77;;;;;-2.60;94038.00;;;;5074386;28;20226;-61
2024/01/17 05:38:41;;;;;;;2.77;2.57;;;;;-2.70;94028.00;;;;5074314;28;20219;-61
2024/01/17 05:41:09;;;;;;;3.07;2.87;;;;;-2.80;94009.00;;;;5074140;28;20204;-61
2024/01/17 05:43:36;;;;;;;2.90;2.40;;;;;-2.80;94011.00;;;;5074407;28;20216;-60
2024/01/17 05:46:03;;;;;;;1.93;1.83;;;;;-2.70;94019.00;;;;5074236;28;20198;-61
2024/01/17 05:48:31;;;;;;;1.67;1.50;;;;;-2.70;94021.00;;;;5073766;28;20658;-60
2024/01/17 05:50:58;;;;;;;3.87;3.43;;;;;-2.70;94001.00;;;;5073829;28;20191;-61
2024/01/17 05:53:29;;;;;;;1.60;1.50;;;;;-2.60;93980.00;;;;5074203;28;20226;-61
2024/01/17 05:55:57;;;;;;;4.97;3.20;;;;;-2.50;93993.00;;;;5072497;28;20180;-61
2024/01/17 05:58:24;;;;;;;4.47;2.33;;;;;-2.50;93984.00;;;;5072211;28;20598;-60
2024/01/17 06:00:52;;;;;;;3.10;2.87;;;;;-2.50;93976.00;;;;5073599;28;20222;-60
2024/01/17 06:03:19;;;;;;;4.20;1.90;;;;;-2.40;93981.00;;;;5073491;28;20214;-61
2024/01/17 06:05:46;;;;;;;3.80;2.90;;;;;-2.50;93967.00;;;;5073626;28;20655;-61
2024/01/17 06:08:14;;;;;;;1.60;1.50;;;;;-2.40;93964.00;;;;5073644;28;20191;-62
2024/01/17 06:10:43;;;;;;;3.00;2.80;;;;;-2.40;93956.00;;;;5073820;28;20570;-60
2024/01/17 06:13:10;;;;;;;4.33;3.93;;;;;-2.40;93961.00;;;;5073263;28;20214;-60
2024/01/17 06:15:37;;;;;;;2.07;1.97;;;;;-2.40;93954.00;;;;5073520;28;20188;-59
2024/01/17 06:18:05;;;;;;;2.77;2.20;;;;;-2.50;93945.00;;;;5075381;28;20196;-60
2024/01/17 06:20:32;;;;;;;2.97;2.60;;;;;-2.40;93944.00;;;;5077390;28;20272;-61
2024/01/17 06:23:01;;;;;;;2.80;2.60;;;;;-2.30;93941.00;;;;5075882;28;20585;-60
2024/01/17 06:25:28;;;;;;;5.33;2.83;;;;;-2.30;93934.00;;;;5077756;28;20191;-61
2024/01/17 06:27:57;;;;;;;4.23;2.53;;;;;-2.30;93930.00;;;;5075845;28;20252;-60
2024/01/17 06:30:25;;;;;;;3.70;2.23;;;;;-2.20;93921.00;;;;5077746;28;20187;-60
2024/01/17 06:32:52;;;;;;;2.87;2.67;;;;;-2.00;93915.00;;;;5076695;28;20242;-59
2024/01/17 06:35:20;;;;;;;2.87;2.60;;;;;-1.90;93911.00;;;;5077100;28;20518;-60
2024/01/17 06:37:47;;;;;;;3.60;3.27;;;;;-1.80;93913.00;;;;5077185;28;20187;-60
2024/01/17 06:40:15;;;;;;;3.07;2.87;;;;;-1.80;93900.00;;;;5076552;28;20563;-60
2024/01/17 06:42:42;;;;;;;3.47;2.37;;;;;-1.70;93905.00;;;;5076358;28;20223;-59
2024/01/17 06:45:11;;;;;;;3.50;2.67;;;;;-1.60;93894.00;;;;5076968;28;20548;-59
2024/01/17 06:47:39;;;;;;;3.53;2.57;;;;;-1.60;93893.00;;;;5076411;28;20274;-59
2024/01/17 06:50:07;;;;;;;2.90;2.70;;;;;-1.50;93895.00;;;;5076216;28;20528;-60
2024/01/17 06:52:34;;;;;;;5.13;2.13;;;;;-1.50;93883.00;;;;5076193;28;20215;-60
2024/01/17 06:55:02;;;;;;;3.77;3.37;;;;;-1.50;93878.00;;;;5076445;28;20195;-61
2024/01/17 06:57:30;;;;;;;2.87;2.57;;;;;-1.40;93878.00;;;;5076117;28;20184;-60
2024/01/17 06:59:57;;;;;;;20.57;3.27;;;;;-1.40;93880.00;;;;5075981;28;20215;-60
2024/01/17 07:02:26;;;;;;;3.40;3.17;;;;;-1.40;93870.00;;;;5075908;28;20211;-60
2024/01/17 07:04:53;;;;;;;2.03;1.93;;;;;-1.30;93862.00;;;;5076432;28;20187;-60
2024/01/17 07:07:20;;;;;;;2.30;2.10;;;;;-1.40;93868.00;;;;5075831;28;20200;-59
2024/01/17 07:09:48;;;;;;;3.70;3.33;;;;;-1.30;93865.00;;;;5075961;28;20677;-59
2024/01/17 07:12:15;;;;;;;6.20;3.33;;;;;-1.20;93856.00;;;;5076228;28;20216;-59
2024/01/17 07:14:43;;;;;;;2.97;2.77;;;;;-1.20;93846.00;;;;5075927;28;20193;-59
2024/01/17 07:17:10;;;;;;;3.60;3.13;;;;;-1.20;93835.00;;;;5076024;28;20192;-61
2024/01/17 07:19:40;;;;;;;4.20;2.33;;;;;-1.10;93840.00;;;;5076068;28;20226;-60
2024/01/17 07:22:09;;;;;;;2.47;2.27;;;;;-1.10;93846.00;;;;5075689;28;20294;-60
2024/01/17 07:24:36;;;;;;;1.67;1.57;;;;;-1.10;93840.00;;;;5075787;28;20203;-60
2024/01/17 07:27:04;;;;;;;4.33;2.97;;;;;-1.10;93846.00;;;;5075893;28;20201;-60
2024/01/17 07:29:32;;;;;;;2.33;2.13;;;;;-1.10;93851.00;;;;5074730;28;20668;-59
2024/01/17 07:31:59;;;;;;;3.53;3.23;;;;;-1.10;93831.00;;;;5075654;28;20225;-60
2024/01/17 07:34:27;;;;;;;4.17;3.87;;;;;-1.00;93831.00;;;;5074596;28;20228;-59
2024/01/17 07:36:55;;;;;;;3.20;2.63;;;;;-0.80;93821.00;;;;5075570;28;20191;-59
2024/01/17 07:39:23;;;;;;;2.20;2.00;;;;;-0.70;93826.00;;;;5075903;28;20569;-59
2024/01/17 07:41:50;;;;;;;2.50;2.30;;;;;-0.70;93822.00;;;;5075919;28;20247;-59
2024/01/17 07:44:18;;;;;;;2.80;2.53;;;;;-0.70;93825.00;;;;5076037;28;20271;-59
2024/01/17 07:46:47;;;;;;;7.70;3.90;;;;;-0.60;93818.00;;;;5076141;28;20226;-59
2024/01/17 07:49:15;;;;;;;3.27;1.73;;;;;-0.50;93812.00;;;;5075465;28;20206;-59
2024/01/17 07:51:42;;;;;;;2.40;2.20;;;;;-0.30;93813.00;;;;5075681;28;20193;-59
2024/01/17 07:54:11;;;;;;;3.13;2.50;;;;;-0.20;93818.00;;;;5074463;28;20192;-59
2024/01/17 07:56:38;;;;;;;2.57;2.40;;;;;-0.20;93812.00;;;;5075631;28;20258;-59
2024/01/17 07:59:07;;;;;;;3.87;3.47;;;;;-0.10;93805.00;;;;5059362;28;20228;-64
2024/01/17 08:01:35;;;;;;;3.63;2.27;;;;;0.10;93799.00;;;;5052055;28;20243;-65
2024/01/17 08:04:02;;;;;;;4.67;3.83;;;;;0.40;93811.00;;;;5053538;28;20199;-63
2024/01/17 08:06:30;;;;;;;2.27;2.17;;;;;0.50;93802.00;;;;5052810;28;20289;-63
2024/01/17 08:08:59;;;;;;;2.60;2.40;;;;;0.60;93793.00;;;;5053440;28;20280;-63
2024/01/17 08:11:28;;;;;;;2.80;2.70;;;;;0.70;93783.00;;;;5052564;28;20195;-63
2024/01/17 08:13:56;;;;;;;3.40;3.10;;;;;0.70;93783.00;;;;5053091;28;20205;-65
2024/01/17 08:16:23;;;;;;;2.87;2.67;;;;;0.60;93780.00;;;;5051369;28;20549;-60
2024/01/17 08:18:51;;;;;;;2.10;1.90;;;;;0.80;93788.00;;;;5053931;28;20207;-60
2024/01/17 08:21:18;;;;;;;2.97;2.77;;;;;0.80;93783.00;;;;5054127;28;20271;-60
2024/01/17 08:23:49;;;;;;;2.23;2.03;;;;;0.80;93775.00;;;;5052949;28;20775;-61
2024/01/17 08:26:16;;;;;;;4.33;2.77;;;;;0.80;93774.00;;;;5051441;28;20296;-61
2024/01/17 08:28:45;;;;;;;2.97;2.30;;;;;0.80;93770.00;;;;5051621;28;20234;-60
2024/01/17 08:31:13;;;;;;;1.67;1.63;;;;;0.90;93759.00;;;;5050728;28;20695;-61
2024/01/17 08:33:41;;;;;;;3.17;2.27;;;;;0.90;93750.00;;;;5052139;28;20254;-61
2024/01/17 08:36:09;;;;;;;3.23;2.53;;;;;1.00;93750.00;;;;5050626;28;21382;-59
2024/01/17 08:38:36;;;;;;;4.13;2.23;;;;;0.90;93745.00;;;;5053087;28;20617;-61
2024/01/17 08:41:04;;;;;;;2.87;2.60;;;;;1.00;93743.00;;;;5051826;28;20230;-60
2024/01/17 08:43:32;;;;;;;2.20;2.10;;;;;1.00;93724.00;;;;5052465;28;20772;-61
2024/01/17 08:46:01;;;;;;;1.83;1.73;;;;;1.10;93726.00;;;;5051989;28;20216;-60
2024/01/17 08:48:29;;;;;;;3.03;2.77;;;;;1.10;93711.00;;;;5052507;28;20194;-60
2024/01/17 08:51:00;;;;;;;2.20;1.97;;;;;1.20;93727.00;;;;5052022;28;20195;-61
2024/01/17 08:53:30;;;;;;;3.33;2.50;;;;;1.10;93724.00;;;;5052412;28;20229;-60
2024/01/17 08:55:58;;;;;;;2.80;1.90;;;;;1.30;93719.00;;;;5052096;28;20192;-60
2024/01/17 08:58:26;;;;;;;1.97;1.87;;;;;1.40;93717.00;;;;5052451;28;20207;-61
2024/01/17 09:00:54;;;;;;;2.33;2.13;;;;;1.40;93707.00;;;;5051493;28;20675;-61
2024/01/17 09:03:22;;;;;;;3.83;2.87;;;;;1.40;93692.00;;;;5052320;28;20302;-61
2024/01/17 09:05:50;;;;;;;1.33;1.30;;;;;1.50;93705.00;;;;5051333;28;20199;-61
2024/01/17 09:08:18;;;;;;;1.40;1.40;;;;;1.40;93702.00;;;;5051874;28;20202;-61
2024/01/17 09:10:46;;;;;;;2.80;2.20;;;;;1.40;93695.00;;;;5050440;28;20694;-61
2024/01/17 09:13:14;;;;;;;2.33;2.23;;;;;1.50;93695.00;;;;5052419;28;20750;-60
2024/01/17 09:15:41;;;;;;;1.83;1.70;;;;;1.50;93689.00;;;;5050945;28;21260;-60
2024/01/17 09:18:09;;;;;;;1.93;1.83;;;;;1.60;93681.00;;;;5050742;28;20729;-60
2024/01/17 09:20:37;;;;;;;1.93;1.83;;;;;1.70;93677.00;;;;5051590;28;20222;-62
2024/01/17 09:23:05;;;;;;;1.77;1.67;;;;;1.70;93659.00;;;;5049722;28;20256;-61
2024/01/17 09:25:33;;;;;;;1.73;1.43;;;;;1.80;93665.00;;;;5051034;28;20289;-61
2024/01/17 09:28:00;;;;;;;1.87;1.70;;;;;2.00;93660.00;;;;5050627;28;20704;-61
2024/01/17 09:30:28;;;;;;;1.77;1.67;;;;;1.90;93625.00;;;;5051271;28;20624;-61
2024/01/17 09:32:55;;;;;;;2.57;2.37;;;;;1.90;93656.00;;;;5051335;28;20306;-61
2024/01/17 09:35:23;;;;;;;1.27;1.23;;;;;1.90;93647.00;;;;5051267;28;20196;-61
2024/01/17 09:37:52;;;;;;;0.93;0.93;;;;;1.90;93652.00;;;;5051247;28;20203;-60
2024/01/17 09:40:23;;;;;;;2.70;2.10;;;;;2.20;93642.00;;;;5051019;28;20250;-60
2024/01/17 09:42:54;;;;;;;1.47;1.37;;;;;2.20;93636.00;;;;5051203;28;20650;-61
2024/01/17 09:45:23;;;;;;;2.30;2.13;;;;;2.10;93631.00;;;;5050885;28;20191;-61
2024/01/17 09:47:55;;;;;;;2.27;2.07;;;;;2.10;93624.00;;;;5051541;28;20202;-61
2024/01/17 09:50:23;;;;;;;2.13;2.03;;;;;1.80;93620.00;;;;5050520;28;20188;-61
2024/01/17 09:52:57;;;;;;;2.13;1.93;;;;;1.80;93609.00;;;;5050937;28;20215;-61
2024/01/17 09:55:27;;;;;;;1.30;1.30;;;;;2.00;93604.00;;;;5049633;28;20550;-61
2024/01/17 09:57:57;;;;;;;1.47;1.37;;;;;2.10;93614.00;;;;5050723;28;20207;-61
2024/01/17 10:00:26;;;;;;;1.10;1.10;;;;;2.20;93607.00;;;;5050872;28;20655;-61
2024/01/17 10:02:58;;;;;;;1.83;1.73;;;;;2.30;93603.00;;;;5048834;28;20243;-61
2024/01/17 10:05:30;;;;;;;1.43;1.37;;;;;2.40;93603.00;;;;5051079;28;20184;-61
2024/01/17 10:07:59;;;;;;;2.13;1.93;;;;;2.40;93583.00;;;;5049648;28;20211;-61
2024/01/17 10:10:27;;;;;;;1.20;1.17;;;;;2.30;93582.00;;;;5050914;28;20203;-61
2024/01/17 10:12:55;;;;;;;0.90;0.90;;;;;2.30;93576.00;;;;5051300;28;20224;-61
2024/01/17 10:15:24;;;;;;;0.70;0.70;;;;;2.40;93574.00;;;;5051028;28;20207;-61
2024/01/17 10:17:51;;;;;;;1.00;1.00;;;;;2.40;93558.00;;;;5050707;28;20200;-61
2024/01/17 10:20:19;;;;;;;0.70;0.70;;;;;2.40;93555.00;;;;5051022;28;20584;-61
2024/01/17 10:22:47;;;;;;;1.93;1.73;;;;;2.50;93544.00;;;;5049024;28;20558;-61
2024/01/17 10:25:17;;;;;;;2.17;1.40;;;;;2.50;93539.00;;;;5051251;28;20230;-61
2024/01/17 10:27:47;;;;;;;0.80;0.80;;;;;2.50;93530.00;;;;5049746;28;20192;-61
2024/01/17 10:30:15;;;;;;;0.80;0.80;;;;;2.50;93521.00;;;;5050636;28;20540;-61
2024/01/17 10:32:43;;;;;;;0.93;0.93;;;;;2.40;93508.00;;;;5049764;28;20298;-60
2024/01/17 10:35:12;;;;;;;1.43;1.23;;;;;2.40;93509.00;;;;5050231;28;20198;-60
2024/01/17 10:37:40;;;;;;;1.53;1.43;;;;;2.40;93508.00;;;;5055287;28;20200;-60
2024/01/17 10:40:10;;;;;;;1.07;1.07;;;;;2.40;93498.00;;;;5053841;28;20200;-60
2024/01/17 10:42:41;;;;;;;2.20;1.53;;;;;2.30;93492.00;;;;5050614;28;20749;-61
2024/01/17 10:45:19;;;;;;;1.27;1.27;;;;;2.40;93485.00;;;;5050572;28;20319;-61
2024/01/17 10:47:48;;;;;;;2.80;1.93;;;;;2.40;93478.00;;;;5050707;28;20191;-61
2024/01/17 10:50:16;;;;;;;1.40;1.37;;;;;2.40;93478.00;;;;5051194;28;20278;-61
2024/01/17 10:52:46;;;;;;;0.90;0.90;;;;;2.40;93486.00;;;;5050354;28;20223;-61
2024/01/17 10:55:17;;;;;;;1.60;1.50;;;;;2.50;93466.00;;;;5050901;28;20200;-61
2024/01/17 10:57:53;;;;;;;1.83;1.73;;;;;2.50;93473.00;;;;5050654;28;20206;-61
2024/01/17 11:00:29;;;;;;;0.90;0.90;;;;;2.80;93464.00;;;;5043860;28;20204;-61
2024/01/17 11:02:58;;;;;;;0.90;0.90;;;;;2.80;93458.00;;;;5050463;28;20261;-61
2024/01/17 11:05:30;;;;;;;1.80;0.80;;;;;2.70;93454.00;;;;5052176;28;20196;-61
2024/01/17 11:08:00;;;;;;;0.90;0.90;;;;;2.80;93451.00;;;;5054315;28;20278;-62
2024/01/17 11:10:29;;;;;;;0.80;0.80;;;;;2.80;93456.00;;;;5053923;28;20284;-61
2024/01/17 11:12:58;;;;;;;1.50;1.43;;;;;2.80;93456.00;;;;5053684;28;20247;-61
2024/01/17 11:15:27;;;;;;;1.07;1.07;;;;;2.80;93451.00;;;;5052750;28;20222;-61
2024/01/17 11:17:57;;;;;;;1.07;1.07;;;;;2.80;93448.00;;;;5054362;28;20200;-61
2024/01/17 11:20:24;;;;;;;1.00;1.00;;;;;2.90;93423.00;;;;5053758;28;20357;-62
2024/01/17 11:22:53;;;;;;;0.70;0.70;;;;;2.90;93412.00;;;;5052291;28;20215;-61
2024/01/17 11:25:27;;;;;;;0.80;0.80;;;;;2.90;93407.00;;;;5054065;28;20207;-60
2024/01/17 11:28:06;;;;;;;6.33;1.10;;;;;3.20;93407.00;;;;5054582;28;20199;-60
2024/01/17 11:30:49;;;;;;;0.80;0.80;;;;;3.30;93384.00;;;;5053659;28;20206;-61
2024/01/17 11:33:18;;;;;;;0.70;0.70;;;;;3.50;93371.00;;;;5054751;28;20694;-61
2024/01/17 11:35:46;;;;;;;1.33;1.30;;;;;3.60;93378.00;;;;5053826;28;20266;-61
2024/01/17 11:38:15;;;;;;;0.93;0.93;;;;;3.60;93366.00;;;;5049797;28;20207;-61
2024/01/17 11:40:43;;;;;;;1.00;1.00;;;;;3.90;93363.00;;;;5051083;28;20220;-61
2024/01/17 11:43:14;;;;;;;0.60;0.60;;;;;4.10;93352.00;;;;5054269;28;20242;-61
2024/01/17 11:45:42;;;;;;;1.00;1.00;;;;;4.10;93353.00;;;;5053743;28;20188;-61
2024/01/17 11:48:16;;;;;;;0.80;0.80;;;;;4.00;93348.00;;;;5052202;28;20226;-61
2024/01/17 11:50:53;;;;;;;1.37;1.27;;;;;4.10;93345.00;;;;5053732;28;20194;-62
2024/01/17 11:53:24;;;;;;;0.60;0.60;;;;;4.10;93336.00;;;;5052953;28;20212;-62
2024/01/17 11:55:52;;;;;;;0.60;0.60;;;;;3.90;93336.00;;;;5052824;28;20196;-62
2024/01/17 11:58:22;;;;;;;1.10;1.10;;;;;3.80;93331.00;;;;5053054;28;20196;-63
2024/01/17 12:00:52;;;;;;;1.13;1.13;;;;;3.70;93324.00;;;;5052835;28;20220;-61
2024/01/17 12:03:31;;;;;;;1.00;1.00;;;;;3.90;93319.00;;;;5053090;28;20251;-61
2024/01/17 12:06:00;;;;;;;0.83;0.83;;;;;3.70;93315.00;;;;5049702;28;20203;-61
2024/01/17 12:08:28;;;;;;;0.73;0.73;;;;;4.00;93323.00;;;;5052903;28;20204;-61
2024/01/17 12:10:56;;;;;;;0.93;0.93;;;;;3.80;93320.00;;;;5052887;28;20200;-61
2024/01/17 12:13:26;;;;;;;1.23;1.17;;;;;3.60;93316.00;;;;5053106;28;20299;-61
2024/01/17 12:15:54;;;;;;;0.87;0.87;;;;;3.40;93306.00;;;;5051993;28;20196;-62
2024/01/17 12:18:23;;;;;;;0.70;0.70;;;;;3.40;93302.00;;;;5051983;28;20200;-63
2024/01/17 12:20:51;;;;;;;0.80;0.80;;;;;3.50;93279.00;;;;5052991;28;20202;-63
2024/01/17 12:23:20;;;;;;;0.73;0.73;;;;;3.90;93286.00;;;;5052801;28;20311;-64
2024/01/17 12:25:49;;;;;;;0.70;0.70;;;;;3.80;93284.00;;;;5052796;28;20208;-64